sensor_id;sensor_type;location;lat;lon;timestamp;P1;durP1;ratioP1;P2;durP2;ratioP2
68509;SDS011;55512;50.102;19.958;2022-07-29T00:02:26;6.30;;;2.80;;
68509;SDS011;55512;50.102;19.958;2022-07-29T00:04:52;6.00;;;2.80;;
68509;SDS011;55512;50.102;19.958;2022-07-29T00:07:18;5.60;;;2.60;;
68509;SDS011;55512;50.102;19.958;2022-07-29T00:09:44;7.70;;;2.90;;
68509;SDS011;55512;50.102;19.958;2022-07-29T00:12:09;6.40;;;2.90;;
68509;SDS011;55512;50.102;19.958;2022-07-29T00:14:34;6.60;;;2.40;;
68509;SDS011;55512;50.102;19.958;2022-07-29T00:17:00;8.00;;;2.60;;
68509;SDS011;55512;50.102;19.958;2022-07-29T00:19:25;8.30;;;3.00;;
68509;SDS011;55512;50.102;19.958;2022-07-29T00:21:51;7.80;;;2.90;;
68509;SDS011;55512;50.102;19.958;2022-07-29T00:24:16;6.60;;;2.80;;
68509;SDS011;55512;50.102;19.958;2022-07-29T00:26:42;6.20;;;2.30;;
68509;SDS011;55512;50.102;19.958;2022-07-29T00:29:07;6.90;;;2.10;;
68509;SDS011;55512;50.102;19.958;2022-07-29T00:31:33;7.20;;;2.50;;
68509;SDS011;55512;50.102;19.958;2022-07-29T00:33:58;5.00;;;2.40;;
68509;SDS011;55512;50.102;19.958;2022-07-29T00:36:24;6.60;;;2.40;;
68509;SDS011;55512;50.102;19.958;2022-07-29T00:38:50;7.00;;;2.50;;
68509;SDS011;55512;50.102;19.958;2022-07-29T00:41:17;7.20;;;2.40;;
68509;SDS011;55512;50.102;19.958;2022-07-29T00:43:43;5.90;;;2.30;;
68509;SDS011;55512;50.102;19.958;2022-07-29T00:46:09;6.00;;;2.30;;
68509;SDS011;55512;50.102;19.958;2022-07-29T00:48:36;6.00;;;2.40;;
68509;SDS011;55512;50.102;19.958;2022-07-29T00:51:03;7.30;;;2.30;;
68509;SDS011;55512;50.102;19.958;2022-07-29T00:53:31;7.00;;;2.60;;
68509;SDS011;55512;50.102;19.958;2022-07-29T00:55:58;7.80;;;2.20;;
68509;SDS011;55512;50.102;19.958;2022-07-29T00:58:24;7.60;;;2.50;;
68509;SDS011;55512;50.102;19.958;2022-07-29T01:00:52;6.80;;;2.50;;
68509;SDS011;55512;50.102;19.958;2022-07-29T01:03:18;6.20;;;2.30;;
68509;SDS011;55512;50.102;19.958;2022-07-29T01:05:45;6.00;;;2.20;;
68509;SDS011;55512;50.102;19.958;2022-07-29T01:08:12;7.50;;;2.70;;
68509;SDS011;55512;50.102;19.958;2022-07-29T01:10:41;6.30;;;2.80;;
68509;SDS011;55512;50.102;19.958;2022-07-29T01:13:08;6.40;;;2.10;;
68509;SDS011;55512;50.102;19.958;2022-07-29T01:15:43;5.80;;;2.50;;
68509;SDS011;55512;50.102;19.958;2022-07-29T01:27:14;6.10;;;2.30;;
68509;SDS011;55512;50.102;19.958;2022-07-29T01:29:58;6.30;;;2.50;;
68509;SDS011;55512;50.102;19.958;2022-07-29T01:32:29;5.40;;;2.60;;
68509;SDS011;55512;50.102;19.958;2022-07-29T01:35:20;5.80;;;2.20;;
68509;SDS011;55512;50.102;19.958;2022-07-29T01:38:09;5.70;;;2.20;;
68509;SDS011;55512;50.102;19.958;2022-07-29T01:40:49;5.30;;;2.10;;
68509;SDS011;55512;50.102;19.958;2022-07-29T01:43:27;5.60;;;2.20;;
68509;SDS011;55512;50.102;19.958;2022-07-29T01:46:21;6.20;;;2.40;;
68509;SDS011;55512;50.102;19.958;2022-07-29T01:51:54;7.00;;;2.50;;
68509;SDS011;55512;50.102;19.958;2022-07-29T01:54:37;6.50;;;2.40;;
68509;SDS011;55512;50.102;19.958;2022-07-29T01:57:11;5.90;;;2.30;;
68509;SDS011;55512;50.102;19.958;2022-07-29T01:59:40;4.80;;;2.60;;
68509;SDS011;55512;50.102;19.958;2022-07-29T02:02:10;7.60;;;2.70;;
68509;SDS011;55512;50.102;19.958;2022-07-29T02:04:39;6.20;;;2.10;;
68509;SDS011;55512;50.102;19.958;2022-07-29T02:07:10;4.50;;;2.00;;
68509;SDS011;55512;50.102;19.958;2022-07-29T02:09:40;5.90;;;3.00;;
68509;SDS011;55512;50.102;19.958;2022-07-29T02:12:07;6.90;;;2.20;;
68509;SDS011;55512;50.102;19.958;2022-07-29T02:14:38;6.00;;;2.40;;
68509;SDS011;55512;50.102;19.958;2022-07-29T02:17:10;4.80;;;2.00;;
68509;SDS011;55512;50.102;19.958;2022-07-29T02:19:39;5.80;;;2.10;;
68509;SDS011;55512;50.102;19.958;2022-07-29T02:22:08;5.70;;;2.30;;
68509;SDS011;55512;50.102;19.958;2022-07-29T02:24:36;5.10;;;2.30;;
68509;SDS011;55512;50.102;19.958;2022-07-29T02:27:05;6.70;;;2.50;;
68509;SDS011;55512;50.102;19.958;2022-07-29T02:29:34;5.00;;;2.00;;
68509;SDS011;55512;50.102;19.958;2022-07-29T02:32:02;6.60;;;2.50;;
68509;SDS011;55512;50.102;19.958;2022-07-29T02:34:29;5.40;;;2.50;;
68509;SDS011;55512;50.102;19.958;2022-07-29T02:36:56;5.90;;;2.50;;
68509;SDS011;55512;50.102;19.958;2022-07-29T02:39:23;5.60;;;2.10;;
68509;SDS011;55512;50.102;19.958;2022-07-29T02:41:54;5.60;;;2.10;;
68509;SDS011;55512;50.102;19.958;2022-07-29T02:44:25;5.40;;;2.10;;
68509;SDS011;55512;50.102;19.958;2022-07-29T02:49:54;5.30;;;2.20;;
68509;SDS011;55512;50.102;19.958;2022-07-29T02:52:39;5.30;;;2.10;;
68509;SDS011;55512;50.102;19.958;2022-07-29T02:55:30;6.90;;;2.60;;
68509;SDS011;55512;50.102;19.958;2022-07-29T02:58:06;5.20;;;2.20;;
68509;SDS011;55512;50.102;19.958;2022-07-29T03:00:37;6.90;;;2.30;;
68509;SDS011;55512;50.102;19.958;2022-07-29T03:03:09;6.80;;;2.40;;
68509;SDS011;55512;50.102;19.958;2022-07-29T03:05:39;3.90;;;1.80;;
68509;SDS011;55512;50.102;19.958;2022-07-29T03:08:07;6.20;;;2.10;;
68509;SDS011;55512;50.102;19.958;2022-07-29T03:10:37;4.30;;;2.10;;
68509;SDS011;55512;50.102;19.958;2022-07-29T03:13:09;6.00;;;2.10;;
68509;SDS011;55512;50.102;19.958;2022-07-29T03:15:36;4.80;;;1.90;;
68509;SDS011;55512;50.102;19.958;2022-07-29T03:18:02;5.20;;;2.30;;
68509;SDS011;55512;50.102;19.958;2022-07-29T03:20:28;5.30;;;2.10;;
68509;SDS011;55512;50.102;19.958;2022-07-29T03:22:54;5.80;;;2.00;;
68509;SDS011;55512;50.102;19.958;2022-07-29T03:25:20;5.60;;;2.30;;
68509;SDS011;55512;50.102;19.958;2022-07-29T03:27:46;6.90;;;2.30;;
68509;SDS011;55512;50.102;19.958;2022-07-29T03:30:13;7.00;;;2.40;;
68509;SDS011;55512;50.102;19.958;2022-07-29T03:32:40;5.20;;;2.50;;
68509;SDS011;55512;50.102;19.958;2022-07-29T03:35:06;4.90;;;1.90;;
68509;SDS011;55512;50.102;19.958;2022-07-29T03:37:32;6.30;;;2.20;;
68509;SDS011;55512;50.102;19.958;2022-07-29T03:40:00;6.30;;;2.50;;
68509;SDS011;55512;50.102;19.958;2022-07-29T03:42:31;5.50;;;2.10;;
68509;SDS011;55512;50.102;19.958;2022-07-29T03:45:02;5.90;;;2.40;;
68509;SDS011;55512;50.102;19.958;2022-07-29T03:47:33;4.70;;;2.10;;
68509;SDS011;55512;50.102;19.958;2022-07-29T03:50:06;5.70;;;2.20;;
68509;SDS011;55512;50.102;19.958;2022-07-29T03:52:32;7.30;;;2.30;;
68509;SDS011;55512;50.102;19.958;2022-07-29T03:54:59;6.40;;;2.40;;
68509;SDS011;55512;50.102;19.958;2022-07-29T03:57:27;6.90;;;2.20;;
68509;SDS011;55512;50.102;19.958;2022-07-29T03:59:54;7.10;;;2.40;;
68509;SDS011;55512;50.102;19.958;2022-07-29T04:02:20;9.20;;;2.70;;
68509;SDS011;55512;50.102;19.958;2022-07-29T04:04:47;8.00;;;2.40;;
68509;SDS011;55512;50.102;19.958;2022-07-29T04:07:14;5.10;;;2.10;;
68509;SDS011;55512;50.102;19.958;2022-07-29T04:09:41;5.00;;;2.20;;
68509;SDS011;55512;50.102;19.958;2022-07-29T04:12:07;14.90;;;3.00;;
68509;SDS011;55512;50.102;19.958;2022-07-29T04:14:34;12.80;;;3.00;;
68509;SDS011;55512;50.102;19.958;2022-07-29T04:17:01;8.50;;;2.60;;
68509;SDS011;55512;50.102;19.958;2022-07-29T04:19:27;6.60;;;2.60;;
68509;SDS011;55512;50.102;19.958;2022-07-29T04:21:53;6.70;;;2.80;;
68509;SDS011;55512;50.102;19.958;2022-07-29T04:24:18;6.00;;;2.60;;
68509;SDS011;55512;50.102;19.958;2022-07-29T04:26:46;7.50;;;2.50;;
68509;SDS011;55512;50.102;19.958;2022-07-29T04:29:12;5.90;;;2.50;;
68509;SDS011;55512;50.102;19.958;2022-07-29T04:31:40;6.30;;;2.70;;
68509;SDS011;55512;50.102;19.958;2022-07-29T04:34:06;9.00;;;2.90;;
68509;SDS011;55512;50.102;19.958;2022-07-29T04:36:32;7.60;;;2.50;;
68509;SDS011;55512;50.102;19.958;2022-07-29T04:38:58;6.50;;;3.00;;
68509;SDS011;55512;50.102;19.958;2022-07-29T04:41:23;6.80;;;3.00;;
68509;SDS011;55512;50.102;19.958;2022-07-29T04:43:49;7.50;;;2.90;;
68509;SDS011;55512;50.102;19.958;2022-07-29T04:46:14;5.70;;;2.80;;
68509;SDS011;55512;50.102;19.958;2022-07-29T04:48:40;6.80;;;2.80;;
68509;SDS011;55512;50.102;19.958;2022-07-29T04:51:06;7.00;;;2.80;;
68509;SDS011;55512;50.102;19.958;2022-07-29T04:53:32;6.20;;;2.40;;
68509;SDS011;55512;50.102;19.958;2022-07-29T04:55:57;5.70;;;2.60;;
68509;SDS011;55512;50.102;19.958;2022-07-29T04:58:23;5.70;;;2.70;;
68509;SDS011;55512;50.102;19.958;2022-07-29T05:00:49;5.50;;;2.20;;
68509;SDS011;55512;50.102;19.958;2022-07-29T05:03:15;6.70;;;3.10;;
68509;SDS011;55512;50.102;19.958;2022-07-29T05:05:41;8.00;;;2.90;;
68509;SDS011;55512;50.102;19.958;2022-07-29T05:08:07;8.20;;;2.50;;
68509;SDS011;55512;50.102;19.958;2022-07-29T05:10:33;7.90;;;2.40;;
68509;SDS011;55512;50.102;19.958;2022-07-29T05:13:03;6.70;;;2.60;;
68509;SDS011;55512;50.102;19.958;2022-07-29T05:15:31;5.60;;;3.00;;
68509;SDS011;55512;50.102;19.958;2022-07-29T05:17:56;7.50;;;2.40;;
68509;SDS011;55512;50.102;19.958;2022-07-29T05:20:22;7.30;;;2.60;;
68509;SDS011;55512;50.102;19.958;2022-07-29T05:22:51;6.60;;;2.50;;
68509;SDS011;55512;50.102;19.958;2022-07-29T05:25:17;5.20;;;2.00;;
68509;SDS011;55512;50.102;19.958;2022-07-29T05:27:43;7.70;;;2.30;;
68509;SDS011;55512;50.102;19.958;2022-07-29T05:30:09;5.90;;;2.40;;
68509;SDS011;55512;50.102;19.958;2022-07-29T05:32:34;4.20;;;1.90;;
68509;SDS011;55512;50.102;19.958;2022-07-29T05:35:00;4.60;;;1.90;;
68509;SDS011;55512;50.102;19.958;2022-07-29T05:37:25;5.50;;;2.10;;
68509;SDS011;55512;50.102;19.958;2022-07-29T05:39:51;6.60;;;1.90;;
68509;SDS011;55512;50.102;19.958;2022-07-29T05:42:17;6.40;;;2.40;;
68509;SDS011;55512;50.102;19.958;2022-07-29T05:44:42;5.50;;;2.30;;
68509;SDS011;55512;50.102;19.958;2022-07-29T05:47:07;7.40;;;2.50;;
68509;SDS011;55512;50.102;19.958;2022-07-29T05:49:33;14.60;;;3.40;;
68509;SDS011;55512;50.102;19.958;2022-07-29T05:51:59;7.50;;;2.50;;
68509;SDS011;55512;50.102;19.958;2022-07-29T05:54:24;9.00;;;2.20;;
68509;SDS011;55512;50.102;19.958;2022-07-29T05:56:50;7.70;;;2.30;;
68509;SDS011;55512;50.102;19.958;2022-07-29T05:59:16;6.10;;;2.50;;
68509;SDS011;55512;50.102;19.958;2022-07-29T06:01:41;6.20;;;2.20;;
68509;SDS011;55512;50.102;19.958;2022-07-29T06:04:07;8.40;;;2.20;;
68509;SDS011;55512;50.102;19.958;2022-07-29T06:06:33;5.10;;;2.30;;
68509;SDS011;55512;50.102;19.958;2022-07-29T06:09:00;5.80;;;2.40;;
68509;SDS011;55512;50.102;19.958;2022-07-29T06:11:26;23.30;;;4.10;;
68509;SDS011;55512;50.102;19.958;2022-07-29T06:13:52;10.70;;;2.80;;
68509;SDS011;55512;50.102;19.958;2022-07-29T06:16:18;17.80;;;3.20;;
68509;SDS011;55512;50.102;19.958;2022-07-29T06:18:44;8.70;;;2.60;;
68509;SDS011;55512;50.102;19.958;2022-07-29T06:21:09;6.10;;;2.50;;
68509;SDS011;55512;50.102;19.958;2022-07-29T06:23:37;5.70;;;2.10;;
68509;SDS011;55512;50.102;19.958;2022-07-29T06:26:03;5.20;;;2.20;;
68509;SDS011;55512;50.102;19.958;2022-07-29T06:28:28;7.20;;;2.80;;
68509;SDS011;55512;50.102;19.958;2022-07-29T06:30:54;5.80;;;2.50;;
68509;SDS011;55512;50.102;19.958;2022-07-29T06:33:19;5.60;;;2.20;;
68509;SDS011;55512;50.102;19.958;2022-07-29T06:35:45;9.10;;;2.90;;
68509;SDS011;55512;50.102;19.958;2022-07-29T06:38:12;10.20;;;3.20;;
68509;SDS011;55512;50.102;19.958;2022-07-29T06:40:45;7.40;;;2.90;;
68509;SDS011;55512;50.102;19.958;2022-07-29T06:43:39;5.80;;;2.30;;
68509;SDS011;55512;50.102;19.958;2022-07-29T06:46:11;5.30;;;2.70;;
68509;SDS011;55512;50.102;19.958;2022-07-29T06:48:40;7.50;;;2.50;;
68509;SDS011;55512;50.102;19.958;2022-07-29T06:51:08;7.20;;;2.40;;
68509;SDS011;55512;50.102;19.958;2022-07-29T06:53:34;4.30;;;2.50;;
68509;SDS011;55512;50.102;19.958;2022-07-29T06:56:02;6.00;;;2.50;;
68509;SDS011;55512;50.102;19.958;2022-07-29T06:58:29;9.30;;;3.00;;
68509;SDS011;55512;50.102;19.958;2022-07-29T07:00:56;8.30;;;3.30;;
68509;SDS011;55512;50.102;19.958;2022-07-29T07:03:24;6.20;;;2.60;;
68509;SDS011;55512;50.102;19.958;2022-07-29T07:05:52;6.30;;;2.70;;
68509;SDS011;55512;50.102;19.958;2022-07-29T07:08:19;9.60;;;3.20;;
68509;SDS011;55512;50.102;19.958;2022-07-29T07:10:47;8.70;;;2.90;;
68509;SDS011;55512;50.102;19.958;2022-07-29T07:13:12;7.00;;;2.70;;
68509;SDS011;55512;50.102;19.958;2022-07-29T07:15:38;5.80;;;2.70;;
68509;SDS011;55512;50.102;19.958;2022-07-29T07:18:05;5.90;;;2.60;;
68509;SDS011;55512;50.102;19.958;2022-07-29T07:20:32;7.00;;;2.80;;
68509;SDS011;55512;50.102;19.958;2022-07-29T07:22:58;12.20;;;3.50;;
68509;SDS011;55512;50.102;19.958;2022-07-29T07:25:24;5.80;;;2.50;;
68509;SDS011;55512;50.102;19.958;2022-07-29T07:27:50;6.80;;;2.80;;
68509;SDS011;55512;50.102;19.958;2022-07-29T07:30:16;7.00;;;3.50;;
68509;SDS011;55512;50.102;19.958;2022-07-29T07:32:42;6.10;;;3.00;;
68509;SDS011;55512;50.102;19.958;2022-07-29T07:35:08;6.60;;;2.70;;
68509;SDS011;55512;50.102;19.958;2022-07-29T07:37:35;6.40;;;3.10;;
68509;SDS011;55512;50.102;19.958;2022-07-29T07:40:01;5.70;;;2.60;;
68509;SDS011;55512;50.102;19.958;2022-07-29T07:42:28;4.70;;;2.60;;
68509;SDS011;55512;50.102;19.958;2022-07-29T07:44:53;8.50;;;3.10;;
68509;SDS011;55512;50.102;19.958;2022-07-29T07:47:19;6.30;;;2.80;;
68509;SDS011;55512;50.102;19.958;2022-07-29T07:49:51;5.90;;;2.60;;
68509;SDS011;55512;50.102;19.958;2022-07-29T07:52:19;6.60;;;2.60;;
68509;SDS011;55512;50.102;19.958;2022-07-29T07:54:46;7.70;;;2.60;;
68509;SDS011;55512;50.102;19.958;2022-07-29T07:57:12;5.30;;;2.50;;
68509;SDS011;55512;50.102;19.958;2022-07-29T07:59:39;5.90;;;3.10;;
68509;SDS011;55512;50.102;19.958;2022-07-29T08:02:05;5.90;;;2.80;;
68509;SDS011;55512;50.102;19.958;2022-07-29T08:04:31;7.50;;;2.80;;
68509;SDS011;55512;50.102;19.958;2022-07-29T08:06:58;5.90;;;2.40;;
68509;SDS011;55512;50.102;19.958;2022-07-29T08:09:25;6.20;;;2.70;;
68509;SDS011;55512;50.102;19.958;2022-07-29T08:11:52;5.90;;;2.70;;
68509;SDS011;55512;50.102;19.958;2022-07-29T08:14:18;7.70;;;2.90;;
68509;SDS011;55512;50.102;19.958;2022-07-29T08:16:44;6.20;;;2.80;;
68509;SDS011;55512;50.102;19.958;2022-07-29T08:19:10;5.80;;;2.90;;
68509;SDS011;55512;50.102;19.958;2022-07-29T08:21:36;7.60;;;3.50;;
68509;SDS011;55512;50.102;19.958;2022-07-29T08:24:01;5.70;;;2.60;;
68509;SDS011;55512;50.102;19.958;2022-07-29T08:26:46;6.30;;;2.80;;
68509;SDS011;55512;50.102;19.958;2022-07-29T08:29:12;5.60;;;2.70;;
68509;SDS011;55512;50.102;19.958;2022-07-29T08:31:38;8.00;;;2.50;;
68509;SDS011;55512;50.102;19.958;2022-07-29T08:34:05;6.90;;;2.80;;
68509;SDS011;55512;50.102;19.958;2022-07-29T08:36:32;5.10;;;2.60;;
68509;SDS011;55512;50.102;19.958;2022-07-29T08:38:59;5.30;;;2.30;;
68509;SDS011;55512;50.102;19.958;2022-07-29T08:41:27;5.10;;;2.50;;
68509;SDS011;55512;50.102;19.958;2022-07-29T08:43:52;5.30;;;2.40;;
68509;SDS011;55512;50.102;19.958;2022-07-29T08:46:19;7.40;;;2.70;;
68509;SDS011;55512;50.102;19.958;2022-07-29T08:48:46;5.50;;;2.60;;
68509;SDS011;55512;50.102;19.958;2022-07-29T08:51:18;6.40;;;2.60;;
68509;SDS011;55512;50.102;19.958;2022-07-29T08:53:47;7.70;;;2.60;;
68509;SDS011;55512;50.102;19.958;2022-07-29T08:56:15;7.20;;;2.50;;
68509;SDS011;55512;50.102;19.958;2022-07-29T08:58:48;5.50;;;2.40;;
68509;SDS011;55512;50.102;19.958;2022-07-29T09:01:17;6.30;;;2.50;;
68509;SDS011;55512;50.102;19.958;2022-07-29T09:03:48;6.80;;;2.60;;
68509;SDS011;55512;50.102;19.958;2022-07-29T09:06:17;6.30;;;2.30;;
68509;SDS011;55512;50.102;19.958;2022-07-29T09:08:45;6.40;;;2.50;;
68509;SDS011;55512;50.102;19.958;2022-07-29T09:11:11;6.50;;;2.20;;
68509;SDS011;55512;50.102;19.958;2022-07-29T09:13:39;8.60;;;2.80;;
68509;SDS011;55512;50.102;19.958;2022-07-29T09:16:05;9.20;;;2.70;;
68509;SDS011;55512;50.102;19.958;2022-07-29T09:18:38;7.50;;;2.40;;
68509;SDS011;55512;50.102;19.958;2022-07-29T09:21:07;5.60;;;2.60;;
68509;SDS011;55512;50.102;19.958;2022-07-29T09:24:11;6.80;;;2.20;;
68509;SDS011;55512;50.102;19.958;2022-07-29T09:26:43;6.20;;;2.50;;
68509;SDS011;55512;50.102;19.958;2022-07-29T09:29:11;7.20;;;2.40;;
68509;SDS011;55512;50.102;19.958;2022-07-29T09:31:41;6.60;;;2.50;;
68509;SDS011;55512;50.102;19.958;2022-07-29T09:34:10;6.00;;;2.70;;
68509;SDS011;55512;50.102;19.958;2022-07-29T09:36:47;5.40;;;2.50;;
68509;SDS011;55512;50.102;19.958;2022-07-29T09:39:16;5.30;;;2.10;;
68509;SDS011;55512;50.102;19.958;2022-07-29T09:41:57;7.60;;;2.80;;
68509;SDS011;55512;50.102;19.958;2022-07-29T09:44:25;5.00;;;2.20;;
68509;SDS011;55512;50.102;19.958;2022-07-29T09:46:59;6.40;;;2.50;;
68509;SDS011;55512;50.102;19.958;2022-07-29T09:49:36;5.80;;;2.30;;
68509;SDS011;55512;50.102;19.958;2022-07-29T09:52:15;6.00;;;2.60;;
68509;SDS011;55512;50.102;19.958;2022-07-29T09:54:41;7.30;;;3.10;;
68509;SDS011;55512;50.102;19.958;2022-07-29T09:57:08;5.30;;;2.40;;
68509;SDS011;55512;50.102;19.958;2022-07-29T10:00:05;7.20;;;2.60;;
68509;SDS011;55512;50.102;19.958;2022-07-29T10:02:37;5.20;;;2.80;;
68509;SDS011;55512;50.102;19.958;2022-07-29T10:05:25;6.80;;;2.80;;
68509;SDS011;55512;50.102;19.958;2022-07-29T10:07:57;4.60;;;2.50;;
68509;SDS011;55512;50.102;19.958;2022-07-29T10:10:26;5.70;;;3.10;;
68509;SDS011;55512;50.102;19.958;2022-07-29T10:13:01;7.10;;;2.80;;
68509;SDS011;55512;50.102;19.958;2022-07-29T10:15:30;6.60;;;2.80;;
68509;SDS011;55512;50.102;19.958;2022-07-29T10:17:58;6.20;;;2.90;;
68509;SDS011;55512;50.102;19.958;2022-07-29T10:20:26;6.90;;;2.60;;
68509;SDS011;55512;50.102;19.958;2022-07-29T10:22:52;5.10;;;2.50;;
68509;SDS011;55512;50.102;19.958;2022-07-29T10:25:19;6.90;;;3.00;;
68509;SDS011;55512;50.102;19.958;2022-07-29T10:27:46;6.20;;;2.80;;
68509;SDS011;55512;50.102;19.958;2022-07-29T10:30:14;8.40;;;4.00;;
68509;SDS011;55512;50.102;19.958;2022-07-29T10:32:51;7.30;;;3.70;;
68509;SDS011;55512;50.102;19.958;2022-07-29T10:44:47;6.40;;;2.80;;
68509;SDS011;55512;50.102;19.958;2022-07-29T10:47:23;9.70;;;2.70;;
68509;SDS011;55512;50.102;19.958;2022-07-29T10:50:01;5.30;;;2.70;;
68509;SDS011;55512;50.102;19.958;2022-07-29T10:55:39;7.60;;;2.80;;
68509;SDS011;55512;50.102;19.958;2022-07-29T10:58:18;6.20;;;2.70;;
68509;SDS011;55512;50.102;19.958;2022-07-29T11:00:47;4.90;;;2.60;;
68509;SDS011;55512;50.102;19.958;2022-07-29T11:03:43;4.70;;;2.80;;
68509;SDS011;55512;50.102;19.958;2022-07-29T11:06:13;6.50;;;2.80;;
68509;SDS011;55512;50.102;19.958;2022-07-29T11:08:40;7.00;;;2.90;;
68509;SDS011;55512;50.102;19.958;2022-07-29T11:16:12;5.90;;;2.80;;
68509;SDS011;55512;50.102;19.958;2022-07-29T11:21:37;7.00;;;3.10;;
68509;SDS011;55512;50.102;19.958;2022-07-29T11:24:15;10.00;;;3.60;;
68509;SDS011;55512;50.102;19.958;2022-07-29T11:26:42;6.90;;;3.20;;
68509;SDS011;55512;50.102;19.958;2022-07-29T11:29:21;6.00;;;3.10;;
68509;SDS011;55512;50.102;19.958;2022-07-29T11:31:52;5.20;;;2.80;;
68509;SDS011;55512;50.102;19.958;2022-07-29T11:39:35;6.10;;;3.20;;
68509;SDS011;55512;50.102;19.958;2022-07-29T11:44:55;6.00;;;3.10;;
68509;SDS011;55512;50.102;19.958;2022-07-29T11:47:22;6.90;;;3.20;;
68509;SDS011;55512;50.102;19.958;2022-07-29T11:49:49;5.40;;;3.20;;
68509;SDS011;55512;50.102;19.958;2022-07-29T11:52:17;7.70;;;3.20;;
68509;SDS011;55512;50.102;19.958;2022-07-29T11:54:43;8.60;;;3.50;;
68509;SDS011;55512;50.102;19.958;2022-07-29T11:57:10;6.80;;;3.30;;
68509;SDS011;55512;50.102;19.958;2022-07-29T11:59:40;5.40;;;3.00;;
68509;SDS011;55512;50.102;19.958;2022-07-29T12:02:07;5.00;;;3.00;;
68509;SDS011;55512;50.102;19.958;2022-07-29T12:04:47;5.80;;;2.90;;
68509;SDS011;55512;50.102;19.958;2022-07-29T12:07:14;5.10;;;2.90;;
68509;SDS011;55512;50.102;19.958;2022-07-29T12:09:49;5.30;;;2.90;;
68509;SDS011;55512;50.102;19.958;2022-07-29T12:12:20;5.90;;;3.10;;
68509;SDS011;55512;50.102;19.958;2022-07-29T12:14:46;4.90;;;3.10;;
68509;SDS011;55512;50.102;19.958;2022-07-29T12:17:32;7.10;;;3.20;;
68509;SDS011;55512;50.102;19.958;2022-07-29T12:20:00;6.90;;;3.30;;
68509;SDS011;55512;50.102;19.958;2022-07-29T12:22:32;5.60;;;2.80;;
68509;SDS011;55512;50.102;19.958;2022-07-29T12:25:10;6.60;;;3.00;;
68509;SDS011;55512;50.102;19.958;2022-07-29T12:27:39;5.40;;;2.80;;
68509;SDS011;55512;50.102;19.958;2022-07-29T12:30:14;7.10;;;3.00;;
68509;SDS011;55512;50.102;19.958;2022-07-29T12:32:48;5.70;;;3.20;;
68509;SDS011;55512;50.102;19.958;2022-07-29T12:35:16;4.60;;;2.70;;
68509;SDS011;55512;50.102;19.958;2022-07-29T12:37:47;5.80;;;3.70;;
68509;SDS011;55512;50.102;19.958;2022-07-29T12:40:17;9.40;;;3.50;;
68509;SDS011;55512;50.102;19.958;2022-07-29T12:45:44;6.10;;;3.30;;
68509;SDS011;55512;50.102;19.958;2022-07-29T12:48:12;8.10;;;3.50;;
68509;SDS011;55512;50.102;19.958;2022-07-29T12:50:56;7.00;;;3.10;;
68509;SDS011;55512;50.102;19.958;2022-07-29T12:53:27;8.00;;;3.40;;
68509;SDS011;55512;50.102;19.958;2022-07-29T12:55:55;7.50;;;3.10;;
68509;SDS011;55512;50.102;19.958;2022-07-29T12:58:34;7.40;;;3.40;;
68509;SDS011;55512;50.102;19.958;2022-07-29T13:01:07;7.60;;;3.60;;
68509;SDS011;55512;50.102;19.958;2022-07-29T13:03:55;6.00;;;3.20;;
68509;SDS011;55512;50.102;19.958;2022-07-29T13:06:33;6.40;;;3.30;;
68509;SDS011;55512;50.102;19.958;2022-07-29T13:09:10;7.10;;;3.50;;
68509;SDS011;55512;50.102;19.958;2022-07-29T13:11:43;7.10;;;3.40;;
68509;SDS011;55512;50.102;19.958;2022-07-29T13:17:05;7.80;;;3.60;;
68509;SDS011;55512;50.102;19.958;2022-07-29T13:19:43;7.20;;;3.30;;
68509;SDS011;55512;50.102;19.958;2022-07-29T13:22:10;8.60;;;3.80;;
68509;SDS011;55512;50.102;19.958;2022-07-29T13:24:50;10.80;;;4.10;;
68509;SDS011;55512;50.102;19.958;2022-07-29T13:27:20;6.90;;;3.40;;
68509;SDS011;55512;50.102;19.958;2022-07-29T13:29:48;8.80;;;3.60;;
68509;SDS011;55512;50.102;19.958;2022-07-29T13:32:17;6.70;;;3.50;;
68509;SDS011;55512;50.102;19.958;2022-07-29T13:34:47;5.20;;;3.20;;
68509;SDS011;55512;50.102;19.958;2022-07-29T13:37:12;5.70;;;3.30;;
68509;SDS011;55512;50.102;19.958;2022-07-29T13:39:39;5.90;;;3.20;;
68509;SDS011;55512;50.102;19.958;2022-07-29T13:42:06;5.80;;;3.00;;
68509;SDS011;55512;50.102;19.958;2022-07-29T13:44:32;8.00;;;3.10;;
68509;SDS011;55512;50.102;19.958;2022-07-29T13:46:58;7.20;;;3.70;;
68509;SDS011;55512;50.102;19.958;2022-07-29T13:49:24;7.50;;;3.30;;
68509;SDS011;55512;50.102;19.958;2022-07-29T13:51:50;6.80;;;3.20;;
68509;SDS011;55512;50.102;19.958;2022-07-29T13:54:16;6.70;;;3.10;;
68509;SDS011;55512;50.102;19.958;2022-07-29T13:56:42;5.20;;;2.80;;
68509;SDS011;55512;50.102;19.958;2022-07-29T13:59:08;11.00;;;3.80;;
68509;SDS011;55512;50.102;19.958;2022-07-29T14:01:34;7.70;;;3.20;;
68509;SDS011;55512;50.102;19.958;2022-07-29T14:04:01;6.90;;;3.00;;
68509;SDS011;55512;50.102;19.958;2022-07-29T14:06:27;7.00;;;3.30;;
68509;SDS011;55512;50.102;19.958;2022-07-29T14:08:53;6.80;;;3.30;;
68509;SDS011;55512;50.102;19.958;2022-07-29T14:11:18;5.20;;;3.10;;
68509;SDS011;55512;50.102;19.958;2022-07-29T14:13:44;4.90;;;3.10;;
68509;SDS011;55512;50.102;19.958;2022-07-29T14:16:09;6.20;;;3.10;;
68509;SDS011;55512;50.102;19.958;2022-07-29T14:18:35;6.00;;;3.10;;
68509;SDS011;55512;50.102;19.958;2022-07-29T14:21:00;5.60;;;3.30;;
68509;SDS011;55512;50.102;19.958;2022-07-29T14:23:26;6.60;;;3.30;;
68509;SDS011;55512;50.102;19.958;2022-07-29T14:25:51;5.60;;;3.20;;
68509;SDS011;55512;50.102;19.958;2022-07-29T14:28:17;6.60;;;3.50;;
68509;SDS011;55512;50.102;19.958;2022-07-29T14:30:42;8.10;;;3.70;;
68509;SDS011;55512;50.102;19.958;2022-07-29T14:33:08;7.20;;;3.80;;
68509;SDS011;55512;50.102;19.958;2022-07-29T14:35:33;9.80;;;3.50;;
68509;SDS011;55512;50.102;19.958;2022-07-29T14:37:59;6.40;;;2.90;;
68509;SDS011;55512;50.102;19.958;2022-07-29T14:40:25;5.50;;;3.20;;
68509;SDS011;55512;50.102;19.958;2022-07-29T14:42:51;9.10;;;3.40;;
68509;SDS011;55512;50.102;19.958;2022-07-29T14:45:17;5.70;;;3.10;;
68509;SDS011;55512;50.102;19.958;2022-07-29T14:47:42;6.00;;;3.40;;
68509;SDS011;55512;50.102;19.958;2022-07-29T14:50:08;6.50;;;3.50;;
68509;SDS011;55512;50.102;19.958;2022-07-29T14:52:37;5.50;;;3.40;;
68509;SDS011;55512;50.102;19.958;2022-07-29T14:55:04;6.30;;;3.30;;
68509;SDS011;55512;50.102;19.958;2022-07-29T14:57:30;6.30;;;3.40;;
68509;SDS011;55512;50.102;19.958;2022-07-29T14:59:55;4.90;;;2.90;;
68509;SDS011;55512;50.102;19.958;2022-07-29T15:02:21;7.10;;;3.70;;
68509;SDS011;55512;50.102;19.958;2022-07-29T15:04:46;7.40;;;3.30;;
68509;SDS011;55512;50.102;19.958;2022-07-29T15:07:13;5.50;;;3.20;;
68509;SDS011;55512;50.102;19.958;2022-07-29T15:09:39;6.70;;;3.30;;
68509;SDS011;55512;50.102;19.958;2022-07-29T15:12:06;7.50;;;3.30;;
68509;SDS011;55512;50.102;19.958;2022-07-29T15:14:32;6.80;;;3.80;;
68509;SDS011;55512;50.102;19.958;2022-07-29T15:16:58;5.50;;;3.00;;
68509;SDS011;55512;50.102;19.958;2022-07-29T15:19:23;5.20;;;3.00;;
68509;SDS011;55512;50.102;19.958;2022-07-29T15:21:49;5.70;;;3.40;;
68509;SDS011;55512;50.102;19.958;2022-07-29T15:24:16;8.20;;;3.60;;
68509;SDS011;55512;50.102;19.958;2022-07-29T15:26:42;6.30;;;3.20;;
68509;SDS011;55512;50.102;19.958;2022-07-29T15:29:08;6.70;;;3.30;;
68509;SDS011;55512;50.102;19.958;2022-07-29T15:31:33;6.40;;;3.60;;
68509;SDS011;55512;50.102;19.958;2022-07-29T15:33:59;7.90;;;3.60;;